Time;durP1;ratioP1;P1;durP2;ratioP2;P2;SDS_P1;SDS_P2;PMS_P1;PMS_P2;Temp;Humidity;BMP_temperature;BMP_pressure;BME280_temperature;BME280_humidity;BME280_pressure;Samples;Min_cycle;Max_cycle;Signal;HPM_P1;HPM_P2
2021/03/26 00:01:19;;;;;;;18.67;16.90;;;;;;;;;;5090526;28;20440;-10
2021/03/26 00:03:48;;;;;;;20.57;18.63;;;;;;;;;;5091742;28;20964;-11
2021/03/26 00:06:17;;;;;;;20.77;19.00;;;;;;;;;;5092949;28;20432;-11
2021/03/26 00:08:45;;;;;;;19.07;17.23;;;;;;;;;;5092145;28;20678;-11
2021/03/26 00:11:12;;;;;;;19.87;17.97;;;;;;;;;;5092175;28;20734;-11
2021/03/26 00:13:39;;;;;;;18.27;16.43;;;;;;;;;;5092483;28;20463;-10
2021/03/26 00:16:06;;;;;;;18.57;16.87;;;;;;;;;;5092331;28;20527;-12
2021/03/26 00:18:33;;;;;;;17.43;16.00;;;;;;;;;;5095151;28;20466;-11
2021/03/26 00:21:01;;;;;;;19.50;17.30;;;;;;;;;;5094706;28;20432;-10
2021/03/26 00:23:28;;;;;;;20.23;18.30;;;;;;;;;;5096540;28;20726;-11
2021/03/26 00:25:56;;;;;;;22.20;19.83;;;;;;;;;;5096774;28;20444;-11
2021/03/26 00:28:23;;;;;;;22.33;19.07;;;;;;;;;;5096429;28;20483;-10
2021/03/26 00:30:50;;;;;;;20.13;18.13;;;;;;;;;;5095282;28;20459;-10
2021/03/26 00:33:17;;;;;;;18.80;15.77;;;;;;;;;;5094908;28;20451;-10
2021/03/26 00:35:44;;;;;;;21.40;19.20;;;;;;;;;;5060610;28;20460;-10
2021/03/26 00:38:11;;;;;;;19.20;17.30;;;;;;;;;;5095461;28;20851;-12
2021/03/26 00:40:39;;;;;;;19.17;17.17;;;;;;;;;;5092321;28;20730;-12
2021/03/26 00:43:06;;;;;;;19.53;17.83;;;;;;;;;;5095483;28;20498;-11
2021/03/26 00:45:34;;;;;;;19.90;17.80;;;;;;;;;;5096470;28;20662;-10
2021/03/26 00:48:18;;;;;;;18.10;16.30;;;;;;;;;;5076398;28;20442;-10
2021/03/26 00:50:47;;;;;;;18.23;16.63;;;;;;;;;;5092781;28;20535;-10
2021/03/26 00:53:15;;;;;;;20.67;18.40;;;;;;;;;;5076655;28;20444;-10
2021/03/26 00:55:45;;;;;;;17.40;15.90;;;;;;;;;;5077015;28;20460;-10
2021/03/26 00:58:12;;;;;;;17.90;16.50;;;;;;;;;;5077735;28;20487;-9
2021/03/26 01:00:40;;;;;;;17.17;15.67;;;;;;;;;;5095787;28;20559;-10
2021/03/26 01:03:15;;;;;;;18.23;16.63;;;;;;;;;;5094207;28;20431;-10
2021/03/26 01:05:44;;;;;;;16.10;14.70;;;;;;;;;;5075446;28;21035;-11
2021/03/26 01:08:11;;;;;;;18.60;16.80;;;;;;;;;;5094111;28;20424;-9
2021/03/26 01:10:39;;;;;;;16.77;15.40;;;;;;;;;;5076336;28;20440;-10
2021/03/26 01:13:08;;;;;;;16.93;15.40;;;;;;;;;;5094891;28;20878;-10
2021/03/26 01:15:36;;;;;;;17.20;15.50;;;;;;;;;;5077057;28;20766;-11
2021/03/26 01:18:05;;;;;;;19.10;17.00;;;;;;;;;;5077182;28;20444;-11
2021/03/26 01:20:37;;;;;;;18.93;17.23;;;;;;;;;;5076775;28;20891;-10
2021/03/26 01:23:05;;;;;;;18.30;16.73;;;;;;;;;;5075613;28;20726;-11
2021/03/26 01:25:34;;;;;;;19.37;17.43;;;;;;;;;;5077455;28;20463;-11
2021/03/26 01:28:24;;;;;;;18.60;16.73;;;;;;;;;;5075015;28;20876;-10
2021/03/26 01:31:11;;;;;;;16.87;15.17;;;;;;;;;;5093549;28;20517;-10
2021/03/26 01:33:38;;;;;;;17.93;15.97;;;;;;;;;;5075520;28;20432;-11
2021/03/26 01:36:07;;;;;;;17.30;14.50;;;;;;;;;;5060180;28;20757;-11
2021/03/26 01:38:34;;;;;;;18.67;16.50;;;;;;;;;;5094738;28;20439;-11
2021/03/26 01:41:07;;;;;;;17.67;16.10;;;;;;;;;;5077640;28;20496;-10
2021/03/26 01:43:36;;;;;;;18.40;16.60;;;;;;;;;;5095517;28;20447;-10
2021/03/26 01:46:04;;;;;;;18.57;16.07;;;;;;;;;;5096466;28;20835;-11
2021/03/26 01:48:34;;;;;;;18.57;16.97;;;;;;;;;;5077994;28;20436;-10
2021/03/26 01:51:02;;;;;;;17.93;16.23;;;;;;;;;;5076371;28;20527;-10
2021/03/26 01:53:30;;;;;;;16.77;15.27;;;;;;;;;;5076376;28;20545;-10
2021/03/26 01:55:59;;;;;;;19.07;17.17;;;;;;;;;;5095095;28;20886;-10
2021/03/26 01:58:28;;;;;;;18.37;16.87;;;;;;;;;;5077237;28;20448;-11
2021/03/26 02:00:58;;;;;;;18.87;17.27;;;;;;;;;;5077253;28;20440;-11
2021/03/26 02:03:26;;;;;;;18.57;16.70;;;;;;;;;;5095350;28;20436;-11
2021/03/26 02:05:55;;;;;;;17.40;15.83;;;;;;;;;;5076365;28;20754;-11
2021/03/26 02:08:27;;;;;;;18.73;17.10;;;;;;;;;;5092746;28;20436;-10
2021/03/26 02:11:08;;;;;;;16.87;15.40;;;;;;;;;;5076126;28;20528;-11
2021/03/26 02:13:39;;;;;;;18.70;17.20;;;;;;;;;;5075401;28;20506;-11
2021/03/26 02:16:14;;;;;;;17.70;16.13;;;;;;;;;;5093439;28;20624;-10
2021/03/26 02:19:01;;;;;;;18.10;16.50;;;;;;;;;;5093824;28;20879;-10
2021/03/26 02:21:31;;;;;;;18.40;16.60;;;;;;;;;;5075986;28;20527;-10
2021/03/26 02:24:02;;;;;;;18.00;16.20;;;;;;;;;;5092813;28;20467;-10
2021/03/26 02:26:31;;;;;;;17.50;15.87;;;;;;;;;;5074423;28;20432;-11
2021/03/26 02:29:01;;;;;;;17.20;15.80;;;;;;;;;;5075151;28;20432;-11
2021/03/26 02:31:56;;;;;;;19.27;17.40;;;;;;;;;;5074791;28;20440;-11
2021/03/26 02:34:24;;;;;;;16.30;14.90;;;;;;;;;;5094569;28;20995;-11
2021/03/26 02:36:52;;;;;;;19.50;17.73;;;;;;;;;;5092947;28;20534;-10
2021/03/26 02:39:22;;;;;;;17.50;15.97;;;;;;;;;;5093161;28;20440;-10
2021/03/26 02:41:55;;;;;;;17.90;16.30;;;;;;;;;;5073102;28;20744;-12
2021/03/26 02:44:41;;;;;;;17.20;15.70;;;;;;;;;;5074660;28;20571;-10
2021/03/26 02:47:17;;;;;;;17.20;15.80;;;;;;;;;;5074431;28;20463;-10
2021/03/26 02:49:50;;;;;;;17.73;16.13;;;;;;;;;;5073022;28;20751;-11
2021/03/26 02:52:22;;;;;;;17.93;16.37;;;;;;;;;;5072941;28;20723;-10
2021/03/26 02:54:51;;;;;;;18.40;16.50;;;;;;;;;;5075124;28;20483;-11
2021/03/26 02:57:21;;;;;;;20.77;17.57;;;;;;;;;;5092080;28;20554;-10
2021/03/26 03:00:12;;;;;;;18.37;16.73;;;;;;;;;;5076025;28;20739;-10
2021/03/26 03:02:40;;;;;;;17.63;16.13;;;;;;;;;;5091222;28;20873;-11
2021/03/26 03:05:12;;;;;;;19.87;17.77;;;;;;;;;;5092807;28;20456;-10
2021/03/26 03:07:43;;;;;;;19.50;17.50;;;;;;;;;;5075694;28;20509;-10
2021/03/26 03:10:35;;;;;;;19.00;17.20;;;;;;;;;;5074086;28;20811;-10
2021/03/26 03:13:06;;;;;;;19.47;17.67;;;;;;;;;;5093051;28;20475;-9
2021/03/26 03:15:38;;;;;;;19.07;17.33;;;;;;;;;;5074199;28;20512;-10
2021/03/26 03:18:09;;;;;;;21.63;19.10;;;;;;;;;;5091405;28;20533;-10
2021/03/26 03:20:39;;;;;;;19.00;17.10;;;;;;;;;;5091901;28;20474;-10
2021/03/26 03:23:08;;;;;;;21.33;18.70;;;;;;;;;;5092706;28;20859;-10
2021/03/26 03:25:58;;;;;;;20.30;18.30;;;;;;;;;;5090893;28;20534;-9
2021/03/26 03:28:29;;;;;;;19.33;17.67;;;;;;;;;;5073582;28;20510;-9
2021/03/26 03:31:28;;;;;;;20.00;18.20;;;;;;;;;;5091073;28;20495;-10
2021/03/26 03:34:00;;;;;;;25.53;20.90;;;;;;;;;;5074210;28;20447;-10
2021/03/26 03:36:31;;;;;;;20.97;19.07;;;;;;;;;;5092272;28;20527;-11
2021/03/26 03:39:02;;;;;;;20.57;18.47;;;;;;;;;;5075049;28;20446;-11
2021/03/26 03:41:52;;;;;;;19.93;18.00;;;;;;;;;;5091628;28;20479;-9
2021/03/26 03:44:20;;;;;;;21.77;19.67;;;;;;;;;;5092756;28;20491;-10
2021/03/26 03:46:51;;;;;;;20.90;18.87;;;;;;;;;;5075192;28;20534;-10
2021/03/26 03:49:42;;;;;;;21.27;19.20;;;;;;;;;;5091884;28;20836;-10
2021/03/26 03:52:13;;;;;;;25.03;19.57;;;;;;;;;;5076856;28;20869;-9
2021/03/26 03:54:42;;;;;;;21.50;19.20;;;;;;;;;;5078963;28;20864;-9
2021/03/26 03:57:11;;;;;;;20.13;18.33;;;;;;;;;;5077412;28;20555;-9
2021/03/26 03:59:42;;;;;;;23.30;19.47;;;;;;;;;;5095041;28;20443;-9
2021/03/26 04:02:16;;;;;;;21.67;19.23;;;;;;;;;;5074641;28;20449;-11
2021/03/26 04:04:45;;;;;;;20.73;18.77;;;;;;;;;;5075703;28;20483;-10
2021/03/26 04:07:15;;;;;;;21.77;19.50;;;;;;;;;;5093715;28;20440;-10
2021/03/26 04:09:45;;;;;;;21.97;19.63;;;;;;;;;;5076163;28;20747;-10
2021/03/26 04:12:15;;;;;;;21.43;19.33;;;;;;;;;;5073794;28;20463;-9
2021/03/26 04:14:51;;;;;;;20.20;18.27;;;;;;;;;;5095521;28;20619;-10
2021/03/26 04:17:23;;;;;;;19.57;17.67;;;;;;;;;;5079324;28;20450;-11
2021/03/26 04:19:57;;;;;;;22.93;20.80;;;;;;;;;;5080018;28;20436;-10
2021/03/26 04:22:28;;;;;;;19.40;17.77;;;;;;;;;;5095536;28;20459;-9
2021/03/26 04:25:06;;;;;;;19.50;17.67;;;;;;;;;;5076284;28;20558;-9
2021/03/26 04:27:40;;;;;;;20.50;18.40;;;;;;;;;;5095968;28;20929;-9
2021/03/26 04:30:34;;;;;;;19.83;17.90;;;;;;;;;;5076106;28;20439;-10
2021/03/26 04:33:15;;;;;;;19.97;18.07;;;;;;;;;;5077761;28;20858;-11
2021/03/26 04:35:45;;;;;;;22.60;19.20;;;;;;;;;;5076586;28;20532;-9
2021/03/26 04:38:17;;;;;;;20.93;18.93;;;;;;;;;;5094452;28;20466;-10
2021/03/26 04:40:48;;;;;;;22.07;18.70;;;;;;;;;;5093843;28;20519;-10
2021/03/26 04:43:23;;;;;;;21.20;19.20;;;;;;;;;;5075974;28;20764;-10
2021/03/26 04:45:54;;;;;;;18.33;16.80;;;;;;;;;;5075114;28;20491;-9
2021/03/26 04:48:45;;;;;;;24.47;19.70;;;;;;;;;;5063322;28;20509;-10
2021/03/26 04:51:40;;;;;;;18.77;17.13;;;;;;;;;;5084749;28;20919;-10
2021/03/26 04:54:26;;;;;;;20.50;18.50;;;;;;;;;;5092603;28;20455;-9
2021/03/26 04:57:02;;;;;;;21.53;19.40;;;;;;;;;;5073988;28;20571;-10
2021/03/26 04:59:35;;;;;;;19.23;17.53;;;;;;;;;;5071309;28;20508;-9
2021/03/26 05:02:11;;;;;;;19.93;17.93;;;;;;;;;;5072542;28;20920;-10
2021/03/26 05:04:40;;;;;;;20.40;18.30;;;;;;;;;;5072151;28;20562;-10
2021/03/26 05:07:10;;;;;;;18.93;17.10;;;;;;;;;;5071539;28;20721;-10
2021/03/26 05:09:39;;;;;;;19.33;17.50;;;;;;;;;;5072549;28;20436;-10
2021/03/26 05:12:24;;;;;;;21.03;19.10;;;;;;;;;;5071115;28;20827;-10
2021/03/26 05:14:54;;;;;;;18.93;17.13;;;;;;;;;;5091367;28;20462;-11
2021/03/26 05:17:24;;;;;;;19.77;17.77;;;;;;;;;;5071353;28;20975;-10
2021/03/26 05:20:08;;;;;;;20.80;18.90;;;;;;;;;;5090357;28;20467;-11
2021/03/26 05:22:58;;;;;;;19.63;17.57;;;;;;;;;;5091418;28;20851;-10
2021/03/26 05:25:45;;;;;;;21.27;18.93;;;;;;;;;;5092108;28;20459;-10
2021/03/26 05:28:41;;;;;;;20.90;18.77;;;;;;;;;;5086771;28;20495;-9
2021/03/26 05:31:16;;;;;;;21.10;19.00;;;;;;;;;;5091106;28;20808;-9
2021/03/26 05:33:45;;;;;;;21.97;19.80;;;;;;;;;;5089674;28;20710;-10
2021/03/26 05:36:27;;;;;;;20.47;18.30;;;;;;;;;;5072205;28;20493;-10
2021/03/26 05:39:30;;;;;;;20.73;18.53;;;;;;;;;;5087254;28;20455;-9
2021/03/26 05:42:23;;;;;;;22.50;20.27;;;;;;;;;;5085301;28;20585;-11
2021/03/26 05:45:13;;;;;;;23.37;18.87;;;;;;;;;;5065852;28;20468;-10
2021/03/26 05:48:10;;;;;;;20.07;17.93;;;;;;;;;;5086532;28;20814;-11
2021/03/26 05:50:50;;;;;;;21.40;19.10;;;;;;;;;;5067533;28;20534;-10
2021/03/26 05:53:39;;;;;;;22.30;18.40;;;;;;;;;;5060512;28;20436;-10
2021/03/26 05:56:31;;;;;;;20.80;18.73;;;;;;;;;;5078729;28;20440;-11
2021/03/26 05:59:09;;;;;;;23.70;18.30;;;;;;;;;;5063967;28;20438;-10
2021/03/26 06:01:44;;;;;;;20.83;18.63;;;;;;;;;;5064099;28;20542;-11
2021/03/26 06:04:34;;;;;;;21.60;18.60;;;;;;;;;;5048056;28;20801;-11
2021/03/26 06:07:36;;;;;;;20.00;18.10;;;;;;;;;;5083787;28;20781;-11
2021/03/26 06:10:46;;;;;;;23.23;20.80;;;;;;;;;;5079772;28;20440;-10
2021/03/26 06:13:42;;;;;;;25.60;20.73;;;;;;;;;;5079036;28;20635;-11
2021/03/26 06:16:45;;;;;;;21.10;18.87;;;;;;;;;;5079699;28;20777;-10
2021/03/26 06:19:47;;;;;;;19.33;17.33;;;;;;;;;;5080911;28;20448;-11
2021/03/26 06:22:56;;;;;;;23.23;20.70;;;;;;;;;;5080342;28;20440;-10
2021/03/26 06:26:06;;;;;;;22.50;17.10;;;;;;;;;;5060413;28;20484;-9
2021/03/26 06:28:40;;;;;;;20.40;17.70;;;;;;;;;;5061178;28;20484;-10
2021/03/26 06:31:34;;;;;;;22.43;20.13;;;;;;;;;;5057862;28;20762;-11
2021/03/26 06:34:48;;;;;;;25.27;19.27;;;;;;;;;;5052936;28;20449;-11
2021/03/26 06:37:27;;;;;;;21.63;18.60;;;;;;;;;;5048294;28;20510;-11
2021/03/26 06:40:24;;;;;;;21.20;19.00;;;;;;;;;;5053831;28;20693;-10
2021/03/26 06:43:00;;;;;;;25.70;22.97;;;;;;;;;;4985855;28;20751;-10
2021/03/26 06:45:50;;;;;;;26.57;23.93;;;;;;;;;;5042922;28;20514;-9
2021/03/26 06:48:27;;;;;;;26.50;23.33;;;;;;;;;;5067025;28;20441;-13
2021/03/26 06:51:06;;;;;;;24.30;21.90;;;;;;;;;;5079628;28;20473;-13
2021/03/26 06:53:36;;;;;;;24.03;21.63;;;;;;;;;;5062022;28;20547;-14
2021/03/26 06:56:23;;;;;;;22.33;20.17;;;;;;;;;;5047096;28;20472;-13
2021/03/26 06:59:05;;;;;;;21.07;18.97;;;;;;;;;;5081835;28;20465;-14
2021/03/26 07:01:50;;;;;;;24.40;21.80;;;;;;;;;;5083972;28;20465;-13
2021/03/26 07:04:34;;;;;;;21.17;18.90;;;;;;;;;;5093051;28;20435;-13
2021/03/26 07:07:20;;;;;;;22.40;19.50;;;;;;;;;;5072532;28;20452;-13
2021/03/26 07:10:14;;;;;;;21.30;19.10;;;;;;;;;;5063315;28;20462;-12
2021/03/26 07:13:02;;;;;;;24.97;19.40;;;;;;;;;;5063746;28;20464;-12
2021/03/26 07:15:33;;;;;;;24.20;20.60;;;;;;;;;;5027776;28;20464;-12
2021/03/26 07:18:17;;;;;;;22.80;20.27;;;;;;;;;;5064364;28;20433;-12
2021/03/26 07:21:04;;;;;;;23.80;21.17;;;;;;;;;;5073852;28;20729;-13
2021/03/26 07:23:58;;;;;;;26.93;20.37;;;;;;;;;;5078088;28;20463;-12
2021/03/26 07:26:44;;;;;;;23.17;20.97;;;;;;;;;;5060941;28;20778;-12
2021/03/26 07:29:29;;;;;;;22.20;19.90;;;;;;;;;;5066363;28;20462;-12
2021/03/26 07:32:11;;;;;;;23.03;20.63;;;;;;;;;;5094718;28;20474;-14
2021/03/26 07:34:45;;;;;;;20.90;18.97;;;;;;;;;;5079662;28;20440;-13
2021/03/26 07:37:17;;;;;;;20.40;18.60;;;;;;;;;;5079460;28;20847;-12
2021/03/26 07:39:47;;;;;;;24.20;19.00;;;;;;;;;;5099014;28;20536;-13
2021/03/26 07:42:32;;;;;;;20.67;18.57;;;;;;;;;;5079655;28;20638;-13
2021/03/26 07:45:13;;;;;;;22.60;20.27;;;;;;;;;;5080999;28;20495;-13
2021/03/26 07:48:02;;;;;;;23.07;20.53;;;;;;;;;;5100386;28;20427;-14
2021/03/26 07:50:42;;;;;;;22.93;20.50;;;;;;;;;;5098615;28;20535;-14
2021/03/26 07:53:17;;;;;;;22.60;20.10;;;;;;;;;;5074302;28;20563;-13
2021/03/26 07:55:55;;;;;;;23.17;20.87;;;;;;;;;;5095506;28;20431;-14
2021/03/26 07:58:40;;;;;;;33.70;24.43;;;;;;;;;;5098729;28;20456;-13
2021/03/26 08:01:22;;;;;;;34.83;23.60;;;;;;;;;;5095800;28;20628;-14
2021/03/26 08:04:04;;;;;;;28.93;25.10;;;;;;;;;;5093395;28;20526;-14
2021/03/26 08:06:48;;;;;;;25.07;21.87;;;;;;;;;;5090679;28;20916;-13
2021/03/26 08:09:24;;;;;;;22.97;20.60;;;;;;;;;;5074068;28;20448;-12
2021/03/26 08:11:59;;;;;;;24.10;21.57;;;;;;;;;;5041818;28;20456;-14
2021/03/26 08:14:47;;;;;;;24.37;20.83;;;;;;;;;;5059604;28;20436;-13
2021/03/26 08:17:25;;;;;;;24.27;21.00;;;;;;;;;;5063156;28;20755;-12
2021/03/26 08:20:01;;;;;;;22.17;20.07;;;;;;;;;;5065048;28;20703;-14
2021/03/26 08:22:32;;;;;;;21.57;19.40;;;;;;;;;;5026656;28;20443;-13
2021/03/26 08:25:07;;;;;;;20.90;18.97;;;;;;;;;;5061666;28;20714;-13
2021/03/26 08:27:39;;;;;;;21.43;19.33;;;;;;;;;;5061013;28;21051;-13
2021/03/26 08:30:15;;;;;;;21.47;19.50;;;;;;;;;;5060986;28;20658;-13
2021/03/26 08:32:50;;;;;;;22.17;20.10;;;;;;;;;;5045443;28;20555;-12
2021/03/26 08:35:36;;;;;;;22.17;20.00;;;;;;;;;;5044187;28;20562;-13
2021/03/26 08:38:12;;;;;;;24.30;20.40;;;;;;;;;;5049582;28;20444;-12
2021/03/26 08:40:48;;;;;;;24.40;20.10;;;;;;;;;;5071023;28;20841;-13
2021/03/26 08:43:18;;;;;;;22.53;20.37;;;;;;;;;;5038812;28;20456;-12
2021/03/26 08:45:47;;;;;;;20.37;18.57;;;;;;;;;;5054682;28;20460;-12
2021/03/26 08:48:20;;;;;;;21.23;19.23;;;;;;;;;;5076077;28;20436;-11
2021/03/26 08:50:53;;;;;;;20.40;18.50;;;;;;;;;;5076639;28;20451;-12
2021/03/26 08:53:34;;;;;;;22.07;20.00;;;;;;;;;;5062763;28;20872;-11
2021/03/26 08:56:09;;;;;;;19.63;17.67;;;;;;;;;;5018719;28;20692;-12
2021/03/26 08:59:04;;;;;;;20.67;18.63;;;;;;;;;;5034123;28;20456;-11
2021/03/26 09:01:38;;;;;;;20.33;18.30;;;;;;;;;;5047164;28;20444;-11
2021/03/26 09:04:13;;;;;;;20.50;18.53;;;;;;;;;;5056193;28;20471;-11
2021/03/26 09:06:46;;;;;;;19.60;17.73;;;;;;;;;;5058313;28;20737;-11
2021/03/26 09:09:22;;;;;;;18.83;16.93;;;;;;;;;;5055488;28;20870;-11
2021/03/26 09:12:01;;;;;;;18.83;17.03;;;;;;;;;;5054183;28;20516;-10
2021/03/26 09:14:36;;;;;;;19.87;17.83;;;;;;;;;;5058571;28;20505;-11
2021/03/26 09:17:07;;;;;;;20.20;18.40;;;;;;;;;;5066764;28;20443;-11
2021/03/26 09:19:39;;;;;;;19.40;17.10;;;;;;;;;;5064792;28;20454;-11
2021/03/26 09:22:12;;;;;;;20.17;18.30;;;;;;;;;;5054901;28;21120;-12
2021/03/26 09:24:59;;;;;;;21.10;15.73;;;;;;;;;;5060460;28;20615;-12
2021/03/26 09:27:30;;;;;;;19.37;17.77;;;;;;;;;;5058667;28;20938;-12
2021/03/26 09:30:02;;;;;;;19.50;17.63;;;;;;;;;;5058571;28;20473;-11
2021/03/26 09:32:31;;;;;;;20.80;18.90;;;;;;;;;;5056292;28;20440;-11
2021/03/26 09:35:01;;;;;;;19.63;17.73;;;;;;;;;;5057489;28;20918;-13
2021/03/26 09:37:29;;;;;;;20.27;18.37;;;;;;;;;;5060824;28;20550;-12
2021/03/26 09:39:59;;;;;;;19.93;18.13;;;;;;;;;;5061104;28;20673;-12
2021/03/26 09:42:41;;;;;;;20.13;18.43;;;;;;;;;;5042234;28;21057;-12
2021/03/26 09:45:26;;;;;;;19.10;17.13;;;;;;;;;;5053613;28;20750;-12
2021/03/26 09:48:04;;;;;;;19.53;17.73;;;;;;;;;;5057249;28;20490;-12
2021/03/26 09:50:35;;;;;;;19.70;17.97;;;;;;;;;;5061311;28;21069;-12
2021/03/26 09:53:08;;;;;;;17.40;15.83;;;;;;;;;;5055351;28;20444;-12
2021/03/26 09:55:36;;;;;;;21.20;17.17;;;;;;;;;;5052790;28;20718;-12
2021/03/26 09:58:11;;;;;;;20.47;18.43;;;;;;;;;;5053119;28;20489;-12
2021/03/26 10:00:45;;;;;;;19.20;17.50;;;;;;;;;;5058213;28;20469;-12
2021/03/26 10:03:27;;;;;;;18.13;16.30;;;;;;;;;;5059555;28;20566;-12
2021/03/26 10:05:56;;;;;;;17.67;16.13;;;;;;;;;;5050863;28;20488;-12
2021/03/26 10:08:47;;;;;;;18.80;16.80;;;;;;;;;;5053535;28;20933;-12
2021/03/26 10:11:16;;;;;;;18.70;17.10;;;;;;;;;;5051771;28;20915;-13
2021/03/26 10:13:45;;;;;;;18.53;16.73;;;;;;;;;;5053815;28;20726;-12
2021/03/26 10:16:15;;;;;;;16.23;14.80;;;;;;;;;;5052712;28;20582;-12
2021/03/26 10:18:46;;;;;;;16.33;15.00;;;;;;;;;;5033984;28;20709;-12
2021/03/26 10:21:15;;;;;;;19.17;17.30;;;;;;;;;;5053705;28;20447;-12
2021/03/26 10:23:51;;;;;;;18.93;17.17;;;;;;;;;;5054268;28;20505;-12
2021/03/26 10:26:22;;;;;;;16.47;14.90;;;;;;;;;;5058106;28;20617;-12
2021/03/26 10:29:12;;;;;;;17.80;16.20;;;;;;;;;;5060405;28;20783;-12
2021/03/26 10:31:40;;;;;;;17.40;15.47;;;;;;;;;;5052700;28;20998;-11
2021/03/26 10:34:09;;;;;;;17.90;16.03;;;;;;;;;;5050515;28;20790;-12
2021/03/26 10:36:42;;;;;;;16.27;15.00;;;;;;;;;;5047832;28;20857;-11
2021/03/26 10:39:11;;;;;;;18.40;16.90;;;;;;;;;;5053520;28;20838;-12
2021/03/26 10:41:43;;;;;;;16.73;15.23;;;;;;;;;;5053714;28;20577;-11
2021/03/26 10:44:15;;;;;;;16.73;15.23;;;;;;;;;;5045770;28;20441;-11
2021/03/26 10:46:44;;;;;;;16.77;15.30;;;;;;;;;;5043599;28;20548;-11
2021/03/26 10:49:14;;;;;;;17.53;16.03;;;;;;;;;;5039358;28;20759;-11
2021/03/26 10:51:43;;;;;;;17.43;15.80;;;;;;;;;;5035701;28;20897;-12
2021/03/26 10:54:21;;;;;;;19.47;17.57;;;;;;;;;;5038342;28;20928;-11
2021/03/26 10:56:52;;;;;;;17.67;15.97;;;;;;;;;;5036850;28;20760;-12
2021/03/26 10:59:23;;;;;;;16.97;15.50;;;;;;;;;;5030851;28;20695;-12
2021/03/26 11:02:03;;;;;;;16.30;15.00;;;;;;;;;;5032219;28;20755;-12
2021/03/26 11:04:35;;;;;;;16.87;15.53;;;;;;;;;;5037925;28;21084;-11
2021/03/26 11:07:05;;;;;;;17.27;15.73;;;;;;;;;;5034861;28;20696;-12
2021/03/26 11:09:36;;;;;;;16.40;14.83;;;;;;;;;;5035923;28;20448;-12
2021/03/26 11:12:05;;;;;;;18.33;16.50;;;;;;;;;;5032575;28;20456;-12
2021/03/26 11:14:40;;;;;;;17.03;15.53;;;;;;;;;;5034141;28;20638;-13
2021/03/26 11:17:12;;;;;;;18.37;16.77;;;;;;;;;;5035161;28;20453;-12
2021/03/26 11:19:44;;;;;;;16.93;15.53;;;;;;;;;;5016704;28;20903;-12
2021/03/26 11:22:16;;;;;;;18.13;16.37;;;;;;;;;;5033955;28;20494;-12
2021/03/26 11:24:44;;;;;;;16.70;15.40;;;;;;;;;;5043645;28;20441;-12
2021/03/26 11:27:17;;;;;;;17.60;15.90;;;;;;;;;;5045136;28;20839;-12
2021/03/26 11:29:46;;;;;;;16.77;15.23;;;;;;;;;;5039711;28;20668;-11
2021/03/26 11:32:16;;;;;;;16.70;15.10;;;;;;;;;;5034503;28;20848;-12
2021/03/26 11:34:46;;;;;;;17.30;15.90;;;;;;;;;;5045541;28;20452;-12
2021/03/26 11:37:15;;;;;;;16.10;14.80;;;;;;;;;;5058896;28;20539;-11
2021/03/26 11:39:45;;;;;;;18.70;17.00;;;;;;;;;;5057679;28;20471;-14
2021/03/26 11:42:31;;;;;;;21.60;15.97;;;;;;;;;;5058562;28;20512;-11
2021/03/26 11:45:00;;;;;;;19.87;15.97;;;;;;;;;;5056556;28;20914;-12
2021/03/26 11:47:32;;;;;;;17.33;15.53;;;;;;;;;;5061382;28;20496;-11
2021/03/26 11:50:05;;;;;;;16.27;14.90;;;;;;;;;;5059339;28;20690;-11
2021/03/26 11:52:38;;;;;;;13.07;9.60;;;;;;;;;;5060087;28;20741;-12
2021/03/26 11:55:08;;;;;;;11.73;9.80;;;;;;;;;;5057591;28;20982;-12
2021/03/26 11:57:37;;;;;;;13.33;10.00;;;;;;;;;;5067435;28;20464;-12
2021/03/26 12:00:13;;;;;;;10.57;9.50;;;;;;;;;;5046563;28;20453;-12
2021/03/26 12:02:51;;;;;;;20.43;10.10;;;;;;;;;;5062311;28;20759;-13
2021/03/26 12:05:28;;;;;;;13.07;10.70;;;;;;;;;;5062172;28;20503;-13
2021/03/26 12:08:02;;;;;;;12.30;8.40;;;;;;;;;;5061040;28;20491;-11
2021/03/26 12:10:34;;;;;;;10.20;8.10;;;;;;;;;;5044164;28;20689;-12
2021/03/26 12:13:05;;;;;;;11.00;7.73;;;;;;;;;;5043912;28;20848;-11
2021/03/26 12:15:36;;;;;;;8.50;7.60;;;;;;;;;;5044574;28;20468;-11
2021/03/26 12:18:05;;;;;;;10.37;7.97;;;;;;;;;;5044558;28;20437;-12
2021/03/26 12:20:35;;;;;;;8.83;7.77;;;;;;;;;;5046849;28;20778;-12
2021/03/26 12:23:08;;;;;;;9.00;7.57;;;;;;;;;;5046194;28;20540;-11
2021/03/26 12:25:38;;;;;;;8.23;7.43;;;;;;;;;;5045945;28;20595;-11
2021/03/26 12:28:10;;;;;;;8.87;8.00;;;;;;;;;;5047096;28;21096;-11
2021/03/26 12:30:46;;;;;;;8.83;7.93;;;;;;;;;;5046790;28;20807;-13
2021/03/26 12:33:17;;;;;;;9.43;8.53;;;;;;;;;;5043804;28;20916;-12
2021/03/26 12:35:47;;;;;;;10.10;8.60;;;;;;;;;;5048762;28;20634;-13
2021/03/26 12:38:21;;;;;;;11.60;8.07;;;;;;;;;;5048473;28;20529;-13
2021/03/26 12:41:01;;;;;;;7.63;6.80;;;;;;;;;;5049131;28;20655;-12
2021/03/26 12:43:34;;;;;;;7.90;7.10;;;;;;;;;;5047802;28;20457;-12
2021/03/26 12:46:03;;;;;;;7.57;6.20;;;;;;;;;;5050028;28;20501;-12
2021/03/26 12:48:35;;;;;;;7.53;6.83;;;;;;;;;;5043805;28;20708;-12
2021/03/26 12:51:09;;;;;;;9.50;7.87;;;;;;;;;;5046772;28;20438;-13
2021/03/26 12:53:39;;;;;;;8.93;7.80;;;;;;;;;;5045605;28;20458;-13
2021/03/26 12:56:12;;;;;;;9.80;7.40;;;;;;;;;;5046012;28;20489;-12
2021/03/26 12:59:00;;;;;;;7.93;7.03;;;;;;;;;;5048072;28;20466;-12
2021/03/26 13:01:29;;;;;;;12.30;7.80;;;;;;;;;;5039726;28;20695;-13
2021/03/26 13:03:59;;;;;;;7.80;7.00;;;;;;;;;;5049167;28;20475;-13
2021/03/26 13:06:28;;;;;;;7.37;6.67;;;;;;;;;;5056566;28;20512;-12
2021/03/26 13:08:59;;;;;;;9.60;8.13;;;;;;;;;;5052454;28;20445;-12
2021/03/26 13:11:32;;;;;;;10.10;7.30;;;;;;;;;;5052658;28;20551;-13
2021/03/26 13:14:05;;;;;;;6.67;5.90;;;;;;;;;;5049939;28;20478;-12
2021/03/26 13:16:37;;;;;;;11.60;6.53;;;;;;;;;;5044412;28;20461;-13
2021/03/26 13:19:06;;;;;;;7.23;6.40;;;;;;;;;;5050960;28;20453;-13
2021/03/26 13:21:40;;;;;;;6.97;5.83;;;;;;;;;;5050546;28;20453;-12
2021/03/26 13:24:28;;;;;;;7.20;6.50;;;;;;;;;;5047669;28;20803;-13
2021/03/26 13:27:09;;;;;;;7.90;6.43;;;;;;;;;;5041139;28;20753;-13
2021/03/26 13:29:37;;;;;;;17.73;7.20;;;;;;;;;;5053644;28;20582;-12
